Latest Weather Observations for Julia Creek

IDQ60801

Issued at 2:05 pm EST Thursday 2 October 2014 (issued every 30 minutes, with the page automatically refreshed every 10 minutes)

About weather observations | Map of weather stations | Latest weather observations for QLD | Other Formats
Station Details ID: 029058 Name: JULIA CREEK AIRPORT Lat: -20.67 Lon: 141.72 Height: 122.5 m
Data from the previous 72 hours. | See also: Recent months at Julia Creek
Date/Time
EST
Temp
°C
App
Temp
°C
Dew
Point
Rel
Hum
%
Delta-T
°C
Wind Press
QNH
hPa
Press
MSL
hPa
Rain
since 9 am
mm
Dir
 
Spd
km/h
Gust
km/h
Spd
kts
Gust
kts
02/02:00pm 36.5 31.1 -1.4 9 18.6 SSE 17 28 9 15 1013.1 1012.4 0.0
02/01:30pm 36.8 32.6 -1.2 9 18.7 SE 11 22 6 12 1013.5 1012.8 0.0
02/01:00pm 35.9 31.8 -0.5 10 18.0 ENE 11 24 6 13 1014.2 1013.4 0.0
02/12:30pm 35.9 32.1 -0.5 10 18.0 E 9 19 5 10 1015.0 1014.2 0.0
02/12:00pm 34.3 30.4 -1.7 10 17.3 ESE 9 17 5 9 1015.6 1014.8 0.0
02/11:30am 34.0 30.8 -0.6 11 16.9 SE 6 11 3 6 1016.2 1015.4 0.0
02/11:00am 33.0 29.3 -0.2 12 16.2 ESE 9 19 5 10 1016.6 1015.9 0.0
02/10:30am 32.2 28.7 1.3 14 15.4 ESE 9 19 5 10 1016.9 1016.2 0.0
02/10:00am 32.1 29.2 1.3 14 15.3 ENE 6 13 3 7 1017.1 1016.4 0.0
02/09:30am 30.7 27.3 2.0 16 14.3 ESE 9 17 5 9 1017.3 1016.6 0.0
02/09:00am 30.0 27.0 2.3 17 13.8 E 7 15 4 8 1017.2 1016.5 0.0
02/08:30am 28.2 24.8 1.7 18 12.9 ESE 9 15 5 8 1017.1 1016.4 0.0
02/08:00am 26.5 22.7 1.7 20 12.0 ESE 11 15 6 8 1016.8 1016.1 0.0
02/07:30am 23.8 20.2 0.8 22 10.7 ESE 9 13 5 7 1016.5 1015.8 0.0
02/07:00am 19.9 16.4 -1.2 24 9.1 ESE 7 9 4 5 1015.9 1015.1 0.0
02/06:30am 19.2 16.0 -0.7 26 8.7 SSE 6 9 3 5 1015.5 1014.7 0.0
02/06:00am 19.0 15.2 -0.9 26 8.6 SSE 9 13 5 7 1015.3 1014.5 0.0
02/05:30am 19.0 15.6 -0.4 27 8.5 SSE 7 9 4 5 1015.1 1014.3 0.0
02/05:00am 18.8 15.0 -0.6 27 8.4 SSE 9 13 5 7 1014.7 1013.9 0.0
02/04:30am 18.2 14.0 -1.1 27 8.3 SE 11 13 6 7 1014.4 1013.6 0.0
02/04:00am 18.9 14.7 -1.0 26 8.6 SE 11 13 6 7 1014.0 1013.2 0.0
02/03:30am 18.5 14.2 -1.3 26 8.5 SSE 11 11 6 6 1013.7 1013.0 0.0
02/03:00am 18.8 14.5 -1.6 25 8.7 SSE 11 13 6 7 1013.6 1012.9 0.0
02/02:30am 19.4 15.1 -1.7 24 9.0 SE 11 13 6 7 1013.6 1012.9 0.0
02/02:00am 19.2 14.9 -1.8 24 8.9 SE 11 11 6 6 1013.6 1012.9 0.0
02/01:30am 19.0 14.6 -2.6 23 9.0 ESE 11 13 6 7 1013.6 1012.9 0.0
02/01:00am 19.1 14.7 -2.5 23 9.1 ESE 11 13 6 7 1013.7 1013.0 0.0
02/12:30am 19.9 15.6 -1.8 23 9.3 ESE 11 11 6 6 1014.0 1013.2 0.0
02/12:00am 19.7 15.3 -2.6 22 9.4 ESE 11 11 6 6 1014.1 1013.3 0.0
 
Date/Time
EST
Temp
°C
App
Temp
°C
Dew
Point
Rel
Hum
%
Delta-T
°C
Wind Press
QNH
hPa
Press
MSL
hPa
Rain
since 9 am
mm
Dir
 
Spd
km/h
Gust
km/h
Spd
kts
Gust
kts
01/11:30pm 20.4 16.4 -2.6 21 9.7 ESE 9 11 5 6 1014.1 1013.3 0.0
01/11:00pm 21.3 17.3 -1.9 21 10.0 E 9 9 5 5 1014.1 1013.3 0.0
01/10:30pm 21.9 17.9 -2.0 20 10.4 E 9 11 5 6 1014.0 1013.2 0.0
01/10:00pm 23.2 19.4 -1.0 20 10.8 E 9 9 5 5 1014.0 1013.2 0.0
01/09:30pm 24.4 20.6 -0.7 19 11.4 E 9 9 5 5 1014.0 1013.2 0.0
01/09:00pm 24.7 20.5 -1.2 18 11.7 E 11 11 6 6 1013.7 1013.0 0.0
01/08:30pm 26.5 22.4 -0.5 17 12.5 E 11 13 6 7 1013.5 1012.8 0.0
01/08:00pm 28.4 24.4 0.2 16 13.4 ESE 11 13 6 7 1013.2 1012.5 0.0
01/07:30pm 31.3 26.7 1.6 15 14.8 ESE 15 19 8 10 1013.0 1012.3 0.0
01/07:00pm 33.3 27.3 1.2 13 16.1 ESE 22 32 12 17 1012.7 1012.0 0.0
01/06:30pm 34.4 28.0 0.9 12 16.8 ESE 24 32 13 17 1012.4 1011.7 0.0
01/06:00pm 35.7 27.7 0.7 11 17.7 ESE 32 41 17 22 1012.1 1011.4 0.0
01/05:30pm 36.5 28.4 0.0 10 18.3 SE 32 41 17 22 1012.0 1011.3 0.0
01/05:00pm 37.4 29.8 0.7 10 18.7 ESE 30 46 16 25 1011.8 1011.1 0.0
01/04:30pm 37.2 29.0 0.5 10 18.6 SE 33 46 18 25 1011.8 1011.1 0.0
01/04:02pm 37.5 29.5 0.7 10 18.8 SE 32 52 17 28 1011.9 1011.2 0.0
01/04:00pm 37.5 29.4 0.7 10 18.8 SSE 33 52 18 28 1012.0 1011.3 0.0
01/03:30pm 38.0 28.6 -0.3 9 19.3 SE 39 61 21 33 1012.3 1011.6 0.0
01/03:21pm 38.3 30.8 1.3 10 19.1 SE 30 61 16 33 1012.2 1011.5 0.0
01/03:00pm 38.0 29.9 1.1 10 19.0 ESE 33 48 18 26 1012.7 1012.0 0.0
01/02:33pm 37.4 29.8 0.7 10 18.7 SE 30 48 16 26 1013.0 1012.3 0.0
01/02:30pm 37.8 29.9 1.0 10 18.9 SE 32 48 17 26 1013.1 1012.4 0.0
01/02:00pm 37.9 31.5 1.0 10 18.9 ESE 24 37 13 20 1013.4 1012.7 0.0
01/01:30pm 36.8 30.9 1.5 11 18.1 ESE 22 33 12 18 1014.2 1013.4 0.0
01/01:00pm 36.6 30.3 1.4 11 18.0 ESE 24 41 13 22 1014.7 1013.9 0.0
01/12:30pm 35.6 31.3 3.0 13 17.0 E 15 26 8 14 1015.3 1014.5 0.0
01/12:00pm 35.3 31.5 3.8 14 16.6 ENE 13 28 7 15 1016.1 1015.3 0.0
01/11:30am 34.1 31.0 5.6 17 15.4 E 11 19 6 10 1016.6 1015.9 0.0
01/11:00am 32.6 30.5 6.0 19 14.3 E 6 9 3 5 1017.2 1016.5 0.0
01/10:30am 32.9 31.2 8.4 22 13.8 NNE 7 17 4 9 1017.4 1016.7 0.0
01/10:00am 31.4 28.2 8.4 24 12.8 N 15 22 8 12 1017.6 1016.9 0.0
01/09:30am 29.9 26.3 8.3 26 11.9 N 17 22 9 12 1017.8 1017.2 0.0
01/09:00am 29.1 25.0 8.7 28 11.3 N 20 26 11 14 1017.7 1017.1 0.0
01/08:30am 27.3 22.3 8.2 30 10.4 N 24 35 13 19 1017.5 1016.9 0.0
01/08:00am 26.4 22.2 7.4 30 10.1 NNE 19 28 10 15 1017.3 1016.7 0.0
01/07:30am 24.7 20.9 6.0 30 9.6 NE 15 20 8 11 1016.8 1016.2 0.0
01/07:00am 21.5 17.5 2.7 29 8.9 NE 13 17 7 9 1016.4 1015.8 0.0
01/06:30am 20.3 16.2 2.2 30 8.4 NE 13 17 7 9 1015.9 1015.3 0.0
01/06:00am 20.1 15.9 1.5 29 8.5 NE 13 17 7 9 1015.6 1015.0 0.0
01/05:30am 20.5 16.7 1.9 29 8.6 ENE 11 15 6 8 1015.1 1014.5 0.0
01/05:00am 19.8 16.3 1.3 29 8.4 E 9 11 5 6 1014.6 1014.0 0.0
01/04:30am 21.6 17.8 1.8 27 9.2 E 11 17 6 9 1014.3 1013.7 0.0
01/04:00am 20.4 16.1 0.8 27 8.9 E 13 15 7 8 1014.2 1013.6 0.0
01/03:30am 20.4 16.1 0.8 27 8.9 E 13 15 7 8 1014.0 1013.4 0.0
01/03:00am 22.2 18.4 1.8 26 9.6 E 11 15 6 8 1013.8 1013.3 0.0
01/02:30am 23.1 18.5 1.5 24 10.1 E 15 19 8 10 1014.0 1013.4 0.0
01/02:00am 23.8 18.8 1.4 23 10.5 E 17 22 9 12 1014.1 1013.5 0.0
01/01:30am 22.6 18.2 0.4 23 10.2 E 13 20 7 11 1014.2 1013.6 0.0
01/01:00am 22.9 18.1 0.1 22 10.4 E 15 19 8 10 1014.2 1013.6 0.0
01/12:30am 21.2 16.2 -1.3 22 9.8 ESE 15 17 8 9 1014.4 1013.8 0.0
01/12:00am 21.6 17.0 -1.0 22 10.0 ESE 13 15 7 8 1014.5 1013.9 0.0
 
Date/Time
EST
Temp
°C
App
Temp
°C
Dew
Point
Rel
Hum
%
Delta-T
°C
Wind Press
QNH
hPa
Press
MSL
hPa
Rain
since 9 am
mm
Dir
 
Spd
km/h
Gust
km/h
Spd
kts
Gust
kts
30/11:30pm 21.3 17.0 -1.9 21 10.0 ESE 11 13 6 7 1014.5 1013.9 0.0
30/11:00pm 22.9 18.3 -1.2 20 10.7 ESE 13 15 7 8 1014.6 1014.0 0.0
30/10:30pm 22.5 17.8 -1.6 20 10.6 ESE 13 15 7 8 1014.7 1014.1 0.0
30/10:00pm 23.2 18.2 -1.0 20 10.8 ESE 15 17 8 9 1014.7 1014.1 0.0
30/09:30pm 23.6 19.2 -2.1 18 11.3 ESE 11 13 6 7 1014.5 1013.9 0.0
30/09:00pm 24.7 20.1 -1.2 18 11.7 ESE 13 15 7 8 1014.3 1013.7 0.0
30/08:30pm 25.0 20.6 -2.5 16 12.1 ESE 11 11 6 6 1014.0 1013.4 0.0
30/08:00pm 26.8 22.2 -1.1 16 12.8 ESE 13 13 7 7 1013.6 1013.1 0.0
30/07:30pm 28.5 24.7 -0.6 15 13.7 ESE 9 11 5 6 1013.2 1012.7 0.0
30/07:00pm 29.9 25.8 -0.5 14 14.5 SE 11 11 6 6 1012.7 1012.2 0.0
30/06:30pm 32.6 28.6 0.6 13 15.8 SSE 11 13 6 7 1012.3 1011.8 0.0
30/06:00pm 34.6 29.4 -0.1 11 17.2 SE 17 20 9 11 1011.9 1011.4 0.0
30/05:30pm 35.3 30.3 1.6 12 17.2 ESE 17 24 9 13 1011.8 1011.3 0.0
30/05:00pm 35.6 32.8 3.0 13 17.1 SE 7 11 4 6 1011.7 1011.2 0.0
30/04:30pm 35.4 32.0 3.9 14 16.7 SE 11 22 6 12 1011.9 1011.4 0.0
30/04:00pm 35.9 32.5 4.2 14 16.9 E 11 19 6 10 1012.0 1011.5 0.0
30/03:30pm 35.8 31.8 5.1 15 16.6 SE 15 20 8 11 1012.4 1011.9 0.0
30/03:00pm 35.1 33.1 6.4 17 15.8 N 6 11 3 6 1012.7 1012.2 0.0
30/02:30pm 35.7 32.3 6.0 16 16.3 S 13 26 7 14 1013.1 1012.6 0.0
30/02:00pm 34.8 31.6 5.3 16 15.9 SE 11 20 6 11 1013.7 1013.2 0.0
30/01:30pm 33.9 32.4 8.5 21 14.4 N 6 11 3 6 1014.4 1013.8 0.0
30/01:00pm 32.8 31.2 8.9 23 13.5 NNE 7 15 4 8 1015.1 1014.5 0.0
30/12:30pm 32.5 30.9 8.7 23 13.4 ENE 7 19 4 10 1015.8 1015.2 0.0
30/12:00pm 32.6 31.5 10.0 25 13.0 NW 6 11 3 6 1016.4 1015.8 0.0
30/11:30am 31.5 30.1 9.7 26 12.4 N 7 19 4 10 1017.1 1016.5 0.0
30/11:00am 30.5 27.9 9.4 27 11.9 N 13 24 7 13 1017.6 1017.0 0.0
30/10:30am 30.6 27.4 10.0 28 11.7 N 17 32 9 17 1017.9 1017.3 0.0
30/10:00am 29.5 26.2 9.6 29 11.2 N 17 28 9 15 1018.3 1017.7 0.0
30/09:30am 28.4 24.4 9.2 30 10.7 NNE 20 33 11 18 1018.4 1017.9 0.0
30/09:00am 27.9 23.2 9.2 31 10.4 NNE 24 33 13 18 1018.2 1017.6 0.0
30/08:30am 26.6 22.2 9.0 33 9.7 NNE 22 30 12 16 1018.3 1017.7 0.0
30/08:00am 25.4 21.2 8.4 34 9.2 NE 20 26 11 14 1017.9 1017.3 0.0
30/07:30am 24.0 19.8 7.6 35 8.7 NE 19 24 10 13 1017.5 1016.9 0.0
30/07:00am 22.4 18.7 6.2 35 8.3 ENE 15 20 8 11 1016.9 1016.3 0.0
30/06:30am 21.8 18.1 6.1 36 8.0 ENE 15 20 8 11 1016.3 1015.7 0.0
30/06:00am 22.0 17.7 5.4 34 8.3 ENE 17 20 9 11 1015.7 1015.1 0.0
30/05:30am 22.7 18.1 5.6 33 8.6 NE 19 22 10 12 1015.0 1014.4 0.0
30/05:00am 22.9 18.0 5.3 32 8.9 NE 20 26 11 14 1014.4 1013.8 0.0
30/04:30am 21.9 16.9 3.6 30 8.9 NE 19 22 10 12 1013.7 1013.2 0.0
30/04:00am 20.9 16.6 3.2 31 8.4 E 15 19 8 10 1013.3 1012.8 0.0
30/03:30am 18.8 14.3 -0.6 27 8.4 ESE 13 15 7 8 1013.2 1012.7 0.0
30/03:00am 18.9 14.6 -1.5 25 8.7 ESE 11 13 6 7 1013.1 1012.6 0.0
30/02:30am 19.2 14.5 -1.8 24 8.9 ESE 13 17 7 9 1013.2 1012.7 0.0
30/02:00am 21.6 17.8 -0.4 23 9.8 E 9 11 5 6 1013.4 1012.9 0.0
30/01:30am 22.8 19.7 0.0 22 10.4 E 6 7 3 4 1013.5 1013.0 0.0
30/01:00am 22.1 17.5 -1.2 21 10.3 ESE 13 15 7 8 1013.6 1013.1 0.0
30/12:30am 22.4 18.6 -1.0 21 10.4 SE 9 13 5 7 1013.6 1013.1 0.0
30/12:00am 24.0 18.9 1.0 22 10.8 SE 17 19 9 10 1013.6 1013.1 0.0
 
Date/Time
EST
Temp
°C
App
Temp
°C
Dew
Point
Rel
Hum
%
Delta-T
°C
Wind Press
QNH
hPa
Press
MSL
hPa
Rain
since 9 am
mm
Dir
 
Spd
km/h
Gust
km/h
Spd
kts
Gust
kts
29/11:30pm 23.8 20.9 1.4 23 10.5 ESE 6 7 3 4 1013.5 1013.0 0.0
29/11:00pm 23.4 20.3 1.1 23 10.4 ESE 7 11 4 6 1013.6 1013.1 0.0
29/10:30pm 23.0 19.9 0.2 22 10.4 E 6 13 3 7 1013.7 1013.2 0.0
29/10:00pm 26.4 24.1 4.8 25 11.0 NNE 6 6 3 3 1013.6 1013.1 0.0
29/09:30pm 25.9 23.5 1.9 21 11.6 NE 4 7 2 4 1013.5 1013.0 0.0
29/09:00pm 26.7 23.7 1.9 20 12.0 E 7 11 4 6 1013.2 1012.7 0.0
29/08:30pm 27.8 25.3 1.3 18 12.8 ESE 4 11 2 6 1012.9 1012.4 0.0
29/08:00pm 29.7 28.1 4.4 20 13.1 ENE 2 4 1 2 1012.6 1012.1 0.0
29/07:30pm 30.3 29.2 4.9 20 13.3 CALM 0 0 0 0 1012.3 1011.8 0.0
29/07:00pm 31.8 29.8 4.6 18 14.3 NE 4 4 2 2 1011.9 1011.4 0.0
29/06:30pm 33.1 31.0 3.9 16 15.3 N 4 6 2 3 1011.6 1011.1 0.0
29/06:00pm 34.6 31.0 3.2 14 16.4 NE 11 19 6 10 1011.3 1010.8 0.0
29/05:30pm 35.1 32.6 3.6 14 16.6 NNE 6 15 3 8 1011.1 1010.5 0.0
29/05:00pm 35.9 33.5 4.2 14 16.9 N 6 17 3 9 1011.0 1010.4 0.0
29/04:30pm 35.8 33.2 4.2 14 16.9 N 7 15 4 8 1011.0 1010.4 0.0
29/04:00pm 36.2 32.5 4.5 14 17.0 NNW 13 26 7 14 1010.9 1010.3 0.0
29/03:30pm 35.9 33.5 5.2 15 16.6 ESE 7 17 4 9 1011.1 1010.5 0.0
29/03:00pm 36.1 33.4 5.4 15 16.7 NNW 9 20 5 11 1011.3 1010.8 0.0
29/02:30pm 35.1 32.4 5.5 16 16.1 NNW 9 15 5 8 1011.7 1011.2 0.0

Other Formats:

Comma delimited format used in spreadsheet applications
http://www.bom.gov.au/fwo/IDQ60801/IDQ60801.94337.axf

JavaScript Object Notation format (JSON) in row-major order
http://www.bom.gov.au/fwo/IDQ60801/IDQ60801.94337.json